Time,TemperatureF,DewpointF,PressureIn,WindDirection,WindDirectionDegrees,WindSpeedMPH,WindSpeedGustMPH,Humidity,HourlyPrecipIn,Conditions,Clouds,dailyrainin,SoftwareType,DateUTC
2013-04-15 00:02:00,33.0,32.0,29.71,North,351,1.0,4.0,96,0.00,,,0.28,,2013-04-15 05:02:00,
2013-04-15 00:12:00,33.0,32.0,29.71,North,351,1.0,4.0,96,0.00,,,0.28,,2013-04-15 05:12:00,
2013-04-15 00:23:00,33.0,32.0,29.71,NE,49,1.0,5.0,96,0.01,,,0.30,,2013-04-15 05:23:00,
2013-04-15 00:33:00,33.0,32.0,29.70,ENE,69,1.0,6.0,96,0.01,,,0.30,,2013-04-15 05:33:00,
2013-04-15 00:42:00,33.0,32.0,29.70,ENE,69,1.0,6.0,96,0.01,,,0.30,,2013-04-15 05:42:00,
2013-04-15 00:52:00,33.0,32.0,29.70,ENE,57,0.0,4.0,96,0.01,,,0.30,,2013-04-15 05:52:00,
2013-04-15 01:02:00,33.0,32.0,29.69,NE,51,1.0,5.0,96,0.01,,,0.30,,2013-04-15 06:02:00,
2013-04-15 01:12:00,33.0,32.0,29.69,NE,51,1.0,5.0,96,0.01,,,0.30,,2013-04-15 06:12:00,
2013-04-15 01:22:00,34.0,33.0,29.69,North,5,1.0,5.0,96,0.00,,,0.30,,2013-04-15 06:22:00,
2013-04-15 01:33:00,34.0,33.0,29.69,North,5,1.0,5.0,96,0.00,,,0.30,,2013-04-15 06:33:00,
2013-04-15 01:37:00,34.0,33.0,29.66,ENE,58,1.0,5.0,96,0.02,,,0.32,,2013-04-15 06:37:00,
2013-04-15 01:42:00,34.0,33.0,29.69,North,5,1.0,5.0,96,0.00,,,0.30,,2013-04-15 06:42:00,
2013-04-15 02:03:00,34.0,33.0,29.66,ENE,58,1.0,5.0,96,0.02,,,0.32,,2013-04-15 07:03:00,
2013-04-15 02:41:00,34.0,33.0,29.65,ESE,117,0.0,4.0,96,0.02,,,0.32,,2013-04-15 07:41:00,
2013-04-15 02:52:00,34.0,33.0,29.62,ENE,61,1.0,5.0,96,0.02,,,0.33,,2013-04-15 07:52:00,
2013-04-15 03:02:00,34.0,33.0,29.61,ENE,70,1.0,5.0,97,0.02,,,0.34,,2013-04-15 08:02:00,
2013-04-15 03:13:00,34.0,33.0,29.61,ENE,70,1.0,5.0,97,0.02,,,0.34,,2013-04-15 08:13:00,
2013-04-15 03:22:00,34.0,33.0,29.62,NE,45,0.0,3.0,97,0.02,,,0.34,,2013-04-15 08:22:00,
2013-04-15 03:33:00,34.0,33.0,29.62,NE,36,0.0,3.0,97,0.01,,,0.34,,2013-04-15 08:33:00,
2013-04-15 03:42:00,34.0,33.0,29.62,NE,36,0.0,3.0,97,0.01,,,0.34,,2013-04-15 08:42:00,
2013-04-15 03:52:00,34.0,33.0,29.61,SE,128,0.0,3.0,96,0.02,,,0.35,,2013-04-15 08:52:00,
2013-04-15 04:03:00,34.0,33.0,29.61,SSE,151,0.0,2.0,97,0.01,,,0.35,,2013-04-15 09:03:00,
2013-04-15 04:12:00,34.0,33.0,29.61,SSE,151,0.0,2.0,97,0.01,,,0.35,,2013-04-15 09:12:00,
2013-04-15 04:23:00,34.0,33.0,29.61,SSE,155,0.0,3.0,97,0.01,,,0.35,,2013-04-15 09:23:00,
2013-04-15 04:32:00,34.0,33.0,29.61,SSE,154,0.0,1.0,97,0.02,,,0.36,,2013-04-15 09:32:00,
2013-04-15 04:43:00,34.0,33.0,29.61,SSE,154,0.0,1.0,97,0.02,,,0.36,,2013-04-15 09:43:00,
2013-04-15 04:53:00,34.0,33.0,29.61,SSE,154,0.0,2.0,97,0.01,,,0.36,,2013-04-15 09:53:00,
2013-04-15 05:02:00,34.0,33.0,29.61,SSE,154,0.0,0.0,97,0.01,,,0.36,,2013-04-15 10:02:00,
2013-04-15 05:13:00,34.0,33.0,29.61,SSE,154,0.0,0.0,97,0.01,,,0.36,,2013-04-15 10:13:00,
2013-04-15 05:23:00,34.0,33.0,29.61,SSE,154,0.0,0.0,97,0.01,,,0.36,,2013-04-15 10:23:00,
2013-04-15 05:33:00,33.0,32.0,29.60,SSE,154,0.0,0.0,97,0.01,,,0.37,,2013-04-15 10:33:00,
2013-04-15 05:42:00,33.0,32.0,29.60,SSE,154,0.0,0.0,97,0.01,,,0.37,,2013-04-15 10:42:00,
2013-04-15 05:52:00,33.0,32.0,29.60,SSE,154,0.0,0.0,97,0.01,,,0.37,,2013-04-15 10:52:00,
2013-04-15 06:03:00,33.0,32.0,29.60,SSE,154,0.0,0.0,97,0.01,,,0.37,,2013-04-15 11:03:00,
2013-04-15 06:12:00,33.0,32.0,29.60,SSE,154,0.0,0.0,97,0.01,,,0.37,,2013-04-15 11:12:00,
2013-04-15 06:22:00,33.0,32.0,29.59,SSE,154,0.0,0.0,97,0.01,,,0.37,,2013-04-15 11:22:00,
2013-04-15 06:32:00,33.0,32.0,29.59,SSE,154,0.0,0.0,97,0.00,,,0.37,,2013-04-15 11:32:00,
2013-04-15 06:43:00,33.0,32.0,29.59,SSE,154,0.0,0.0,97,0.00,,,0.37,,2013-04-15 11:43:00,
2013-04-15 06:53:00,33.0,32.0,29.59,SSE,154,0.0,0.0,97,0.00,,,0.37,,2013-04-15 11:53:00,
2013-04-15 07:04:00,33.0,32.0,29.59,SSE,154,0.0,0.0,97,0.00,,,0.37,,2013-04-15 12:04:00,
2013-04-15 07:14:00,33.0,32.0,29.59,SSE,154,0.0,0.0,97,0.00,,,0.37,,2013-04-15 12:14:00,
2013-04-15 07:23:00,32.0,31.0,29.59,SSE,154,0.0,0.0,97,0.00,,,0.37,,2013-04-15 12:23:00,
2013-04-15 07:33:00,33.0,32.0,29.59,SSE,154,0.0,0.0,97,0.00,,,0.37,,2013-04-15 12:33:00,
2013-04-15 07:43:00,33.0,32.0,29.59,SSE,154,0.0,0.0,97,0.00,,,0.37,,2013-04-15 12:43:00,
2013-04-15 07:52:00,33.0,32.0,29.59,SSE,154,0.0,0.0,98,0.00,,,0.37,,2013-04-15 12:52:00,
2013-04-15 08:04:00,34.0,34.0,29.59,SSE,154,0.0,0.0,98,0.00,,,0.37,,2013-04-15 13:04:00,
2013-04-15 08:12:00,34.0,34.0,29.59,SSE,154,0.0,0.0,98,0.00,,,0.37,,2013-04-15 13:12:00,
2013-04-15 08:23:00,35.0,34.0,29.59,SSE,154,0.0,3.0,98,0.00,,,0.37,,2013-04-15 13:23:00,
2013-04-15 08:33:00,36.0,35.0,29.59,South,181,1.0,5.0,97,0.00,,,0.37,,2013-04-15 13:33:00,
2013-04-15 08:43:00,36.0,35.0,29.59,South,181,1.0,5.0,97,0.00,,,0.37,,2013-04-15 13:43:00,
2013-04-15 08:53:00,37.0,36.0,29.58,South,187,1.0,5.0,96,0.00,,,0.37,,2013-04-15 13:53:00,
2013-04-15 09:05:00,38.0,36.0,29.59,South,169,2.0,7.0,92,0.01,,,0.38,,2013-04-15 14:05:00,
2013-04-15 09:13:00,38.0,36.0,29.59,South,169,2.0,7.0,92,0.01,,,0.38,,2013-04-15 14:13:00,
2013-04-15 09:22:00,39.0,36.0,29.59,South,174,2.0,7.0,89,0.03,,,0.40,,2013-04-15 14:22:00,
2013-04-15 09:33:00,38.0,35.0,29.59,SSW,192,1.0,5.0,89,0.05,,,0.41,,2013-04-15 14:33:00,
2013-04-15 09:44:00,38.0,35.0,29.59,SSW,192,1.0,5.0,89,0.05,,,0.41,,2013-04-15 14:44:00,
2013-04-15 09:53:00,39.0,35.0,29.58,SSE,167,2.0,5.0,86,0.07,,,0.43,,2013-04-15 14:53:00,
2013-04-15 10:03:00,39.0,35.0,29.57,SW,226,2.0,6.0,85,0.08,,,0.45,,2013-04-15 15:03:00,
2013-04-15 10:13:00,39.0,35.0,29.57,SW,226,2.0,6.0,85,0.08,,,0.45,,2013-04-15 15:13:00,
2013-04-15 10:23:00,39.0,34.0,29.58,SSW,199,3.0,8.0,82,0.09,,,0.48,,2013-04-15 15:23:00,
2013-04-15 10:35:00,40.0,35.0,29.58,SW,235,2.0,7.0,81,0.09,,,0.50,,2013-04-15 15:35:00,
2013-04-15 10:44:00,40.0,35.0,29.58,SW,235,2.0,7.0,81,0.09,,,0.50,,2013-04-15 15:44:00,
2013-04-15 10:53:00,40.0,34.0,29.58,SSE,167,4.0,8.0,79,0.10,,,0.53,,2013-04-15 15:53:00,
2013-04-15 11:04:00,40.0,32.0,29.59,South,183,3.0,9.0,73,0.11,,,0.56,,2013-04-15 16:04:00,
2013-04-15 11:13:00,40.0,32.0,29.59,South,183,3.0,9.0,73,0.11,,,0.56,,2013-04-15 16:13:00,
2013-04-15 11:24:00,40.0,33.0,29.60,SW,219,5.0,11.0,77,0.10,,,0.57,,2013-04-15 16:24:00,
2013-04-15 11:33:00,40.0,32.0,29.62,SSW,213,6.0,12.0,73,0.11,,,0.57,,2013-04-15 16:33:00,
2013-04-15 11:44:00,40.0,32.0,29.62,SSW,213,6.0,12.0,73,0.11,,,0.57,,2013-04-15 16:44:00,
2013-04-15 11:53:00,39.0,31.0,29.63,WSW,238,3.0,13.0,72,0.10,,,0.60,,2013-04-15 16:53:00,
2013-04-15 12:03:00,39.0,30.0,29.64,SSW,192,5.0,13.0,69,0.09,,,0.62,,2013-04-15 17:03:00,
2013-04-15 12:15:00,39.0,30.0,29.64,SSW,192,5.0,13.0,69,0.09,,,0.62,,2013-04-15 17:15:00,
2013-04-15 12:22:00,39.0,30.0,29.65,SSE,161,4.0,16.0,69,0.10,,,0.65,,2013-04-15 17:22:00,
2013-04-15 12:33:00,40.0,30.0,29.64,SSW,200,5.0,13.0,68,0.09,,,0.62,,2013-04-15 17:33:00,
2013-04-15 12:43:00,40.0,30.0,29.64,SSW,200,5.0,13.0,68,0.09,,,0.62,,2013-04-15 17:43:00,
2013-04-15 12:52:00,40.0,30.0,29.65,South,174,5.0,12.0,66,0.10,,,0.65,,2013-04-15 17:52:00,
2013-04-15 13:03:00,40.0,30.0,29.66,SSW,209,4.0,12.0,67,0.09,,,0.67,,2013-04-15 18:03:00,
2013-04-15 13:12:00,40.0,30.0,29.66,SSW,209,4.0,12.0,67,0.09,,,0.67,,2013-04-15 18:12:00,
2013-04-15 13:23:00,40.0,30.0,29.66,SSE,148,3.0,12.0,67,0.10,,,0.70,,2013-04-15 18:23:00,
2013-04-15 13:32:00,40.0,30.0,29.67,SSW,198,2.0,12.0,67,0.09,,,0.67,,2013-04-15 18:32:00,
2013-04-15 13:42:00,40.0,30.0,29.67,SSW,198,2.0,12.0,67,0.09,,,0.67,,2013-04-15 18:42:00,
2013-04-15 13:52:00,40.0,30.0,29.68,SSW,193,5.0,12.0,68,0.08,,,0.69,,2013-04-15 18:52:00,
2013-04-15 14:02:00,40.0,30.0,29.68,South,186,4.0,13.0,68,0.07,,,0.71,,2013-04-15 19:02:00,
2013-04-15 14:12:00,40.0,30.0,29.68,South,186,4.0,13.0,68,0.07,,,0.71,,2013-04-15 19:12:00,
2013-04-15 14:22:00,41.0,31.0,29.68,NW,321,5.0,12.0,67,0.06,,,0.72,,2013-04-15 19:22:00,
2013-04-15 14:37:00,40.0,30.0,29.68,SSE,167,5.0,13.0,67,0.07,,,0.72,,2013-04-15 19:37:00,
2013-04-15 14:52:00,40.0,30.0,29.68,SSE,167,5.0,13.0,67,0.07,,,0.72,,2013-04-15 19:52:00,
2013-04-15 14:58:00,40.0,30.0,29.70,SSE,163,3.0,11.0,68,0.06,,,0.73,,2013-04-15 19:58:00,
2013-04-15 15:02:00,40.0,31.0,29.71,South,176,5.0,13.0,69,0.05,,,0.74,,2013-04-15 20:02:00,
2013-04-15 15:11:00,40.0,31.0,29.71,South,176,5.0,13.0,69,0.05,,,0.74,,2013-04-15 20:11:00,
2013-04-15 15:22:00,39.0,30.0,29.71,WSW,243,5.0,13.0,71,0.05,,,0.75,,2013-04-15 20:22:00,
2013-04-15 15:32:00,40.0,31.0,29.70,SSW,206,6.0,19.0,69,0.04,,,0.74,,2013-04-15 20:32:00,
2013-04-15 15:42:00,40.0,31.0,29.70,SSW,206,6.0,19.0,69,0.04,,,0.74,,2013-04-15 20:42:00,
2013-04-15 15:52:00,41.0,31.0,29.71,SW,215,3.0,13.0,67,0.04,,,0.76,,2013-04-15 20:52:00,
2013-04-15 16:02:00,41.0,31.0,29.71,SSW,211,5.0,13.0,67,0.05,,,0.77,,2013-04-15 21:02:00,
2013-04-15 16:12:00,41.0,31.0,29.71,SSW,211,5.0,13.0,67,0.05,,,0.77,,2013-04-15 21:12:00,
2013-04-15 16:22:00,41.0,31.0,29.71,SSE,161,4.0,10.0,67,0.05,,,0.78,,2013-04-15 21:22:00,
2013-04-15 16:33:00,41.0,31.0,29.72,SE,146,4.0,13.0,67,0.05,,,0.77,,2013-04-15 21:33:00,
2013-04-15 16:43:00,41.0,31.0,29.72,SE,146,4.0,13.0,67,0.05,,,0.77,,2013-04-15 21:43:00,
2013-04-15 16:53:00,41.0,31.0,29.71,SSE,156,2.0,9.0,67,0.04,,,0.78,,2013-04-15 21:53:00,
2013-04-15 17:02:00,41.0,31.0,29.72,SW,231,2.0,9.0,67,0.04,,,0.79,,2013-04-15 22:02:00,
2013-04-15 17:13:00,41.0,31.0,29.72,SW,231,2.0,9.0,67,0.04,,,0.79,,2013-04-15 22:13:00,
2013-04-15 17:23:00,41.0,31.0,29.72,SSW,194,3.0,10.0,67,0.04,,,0.80,,2013-04-15 22:23:00,
2013-04-15 17:33:00,41.0,31.0,29.73,SW,223,3.0,8.0,68,0.03,,,0.80,,2013-04-15 22:33:00,
2013-04-15 17:42:00,41.0,31.0,29.73,SW,223,3.0,8.0,68,0.03,,,0.80,,2013-04-15 22:42:00,
2013-04-15 17:52:00,41.0,31.0,29.73,South,184,3.0,9.0,68,0.02,,,0.80,,2013-04-15 22:52:00,
2013-04-15 18:02:00,40.0,31.0,29.73,South,184,3.0,8.0,69,0.02,,,0.81,,2013-04-15 23:02:00,
2013-04-15 18:12:00,40.0,31.0,29.73,South,184,3.0,8.0,69,0.02,,,0.81,,2013-04-15 23:12:00,
2013-04-15 18:22:00,40.0,31.0,29.74,South,185,3.0,9.0,70,0.01,,,0.81,,2013-04-15 23:22:00,
2013-04-15 18:32:00,40.0,31.0,29.75,SW,233,4.0,8.0,70,0.02,,,0.82,,2013-04-15 23:32:00,
2013-04-15 18:42:00,40.0,31.0,29.75,SW,233,4.0,8.0,70,0.02,,,0.82,,2013-04-15 23:42:00,
2013-04-15 18:52:00,40.0,31.0,29.76,SSW,199,2.0,7.0,70,0.02,,,0.82,,2013-04-15 23:52:00,
2013-04-15 19:02:00,40.0,31.0,29.76,SSW,207,2.0,5.0,70,0.01,,,0.82,,2013-04-16 00:02:00,
2013-04-15 19:12:00,40.0,31.0,29.76,SSW,207,2.0,5.0,70,0.01,,,0.82,,2013-04-16 00:12:00,
2013-04-15 19:22:00,40.0,31.0,29.77,WSW,252,3.0,10.0,70,0.01,,,0.82,,2013-04-16 00:22:00,
2013-04-15 19:32:00,40.0,31.0,29.77,WSW,237,4.0,11.0,70,0.01,,,0.83,,2013-04-16 00:32:00,
2013-04-15 19:42:00,40.0,31.0,29.77,WSW,237,4.0,11.0,70,0.01,,,0.83,,2013-04-16 00:42:00,
2013-04-15 19:52:00,40.0,31.0,29.77,WNW,291,5.0,12.0,71,0.01,,,0.83,,2013-04-16 00:52:00,
2013-04-15 20:02:00,40.0,32.0,29.78,West,279,3.0,12.0,72,0.01,,,0.83,,2013-04-16 01:02:00,
2013-04-15 20:12:00,40.0,32.0,29.78,West,279,3.0,12.0,72,0.01,,,0.83,,2013-04-16 01:12:00,
2013-04-15 20:22:00,39.0,31.0,29.79,SW,214,3.0,9.0,72,0.02,,,0.84,,2013-04-16 01:22:00,
2013-04-15 20:32:00,39.0,31.0,29.80,West,262,2.0,10.0,73,0.01,,,0.84,,2013-04-16 01:32:00,
2013-04-15 20:42:00,39.0,31.0,29.80,West,262,2.0,10.0,73,0.01,,,0.84,,2013-04-16 01:42:00,
2013-04-15 20:52:00,39.0,31.0,29.80,SW,236,2.0,10.0,74,0.01,,,0.84,,2013-04-16 01:52:00,
2013-04-15 21:02:00,39.0,31.0,29.82,South,170,2.0,10.0,74,0.01,,,0.84,,2013-04-16 02:02:00,
2013-04-15 21:12:00,39.0,31.0,29.82,South,170,2.0,10.0,74,0.01,,,0.84,,2013-04-16 02:12:00,
2013-04-15 21:22:00,39.0,32.0,29.82,SW,230,3.0,10.0,75,0.00,,,0.84,,2013-04-16 02:22:00,
2013-04-15 21:32:00,39.0,32.0,29.82,WSW,252,3.0,10.0,76,0.00,,,0.82,,2013-04-16 02:32:00,
2013-04-15 21:42:00,39.0,32.0,29.82,WSW,252,3.0,10.0,76,0.00,,,0.82,,2013-04-16 02:42:00,
2013-04-15 21:52:00,38.0,31.0,29.83,SW,221,3.0,10.0,76,0.00,,,0.82,,2013-04-16 02:52:00,
2013-04-15 22:02:00,38.0,31.0,29.83,South,182,2.0,9.0,77,0.00,,,0.82,,2013-04-16 03:02:00,
2013-04-15 22:12:00,38.0,31.0,29.83,South,182,2.0,9.0,77,0.00,,,0.82,,2013-04-16 03:12:00,
2013-04-15 22:22:00,38.0,32.0,29.83,SW,235,4.0,9.0,78,0.00,,,0.82,,2013-04-16 03:22:00,
2013-04-15 22:33:00,37.0,31.0,29.84,South,186,3.0,9.0,78,0.00,,,0.75,,2013-04-16 03:33:00,
2013-04-15 22:43:00,37.0,31.0,29.84,South,186,3.0,9.0,78,0.00,,,0.75,,2013-04-16 03:43:00,
2013-04-15 22:52:00,37.0,31.0,29.84,SSW,210,3.0,9.0,79,0.00,,,0.75,,2013-04-16 03:52:00,
2013-04-15 23:03:00,37.0,31.0,29.85,West,271,3.0,10.0,79,0.00,,,0.75,,2013-04-16 04:03:00,
2013-04-15 23:12:00,37.0,31.0,29.85,West,271,3.0,10.0,79,0.00,,,0.75,,2013-04-16 04:12:00,
2013-04-15 23:23:00,37.0,31.0,29.85,SW,220,2.0,8.0,79,0.00,,,0.75,,2013-04-16 04:23:00,
2013-04-15 23:33:00,37.0,31.0,29.85,WSW,249,1.0,6.0,80,0.00,,,0.74,,2013-04-16 04:33:00,
2013-04-15 23:42:00,37.0,31.0,29.85,WSW,249,1.0,6.0,80,0.00,,,0.74,,2013-04-16 04:42:00,
2013-04-15 23:52:00,37.0,31.0,29.86,SW,223,1.0,5.0,80,0.00,,,0.74,,2013-04-16 04:52:00,